createdAt,value
2023-05-24T00:04:56.314Z,18.68
2023-05-24T00:09:57.936Z,18.57
2023-05-24T00:15:00.154Z,18.49
2023-05-24T00:20:01.797Z,18.49
2023-05-24T00:25:04.675Z,18.65
2023-05-24T00:30:07.404Z,18.48
2023-05-24T00:35:09.198Z,18.50
2023-05-24T00:40:13.957Z,18.50
2023-05-24T00:45:15.612Z,18.40
2023-05-24T00:50:17.545Z,18.44
2023-05-24T00:55:19.238Z,18.47
2023-05-24T01:00:21.059Z,18.69
2023-05-24T01:05:23.655Z,18.63
2023-05-24T01:11:04.033Z,18.39
2023-05-24T01:16:12.345Z,18.04
2023-05-24T01:21:30.341Z,18.32
2023-05-24T01:26:48.884Z,18.34
2023-05-24T01:31:51.061Z,18.16
2023-05-24T01:36:52.886Z,18.36
2023-05-24T01:42:03.553Z,18.21
2023-05-24T01:47:20.651Z,18.41
2023-05-24T01:52:27.538Z,18.47
2023-05-24T01:57:30.316Z,18.36
2023-05-24T02:02:32.182Z,18.08
2023-05-24T02:07:33.851Z,18.18
2023-05-24T02:12:35.933Z,18.11
2023-05-24T02:17:37.598Z,18.42
2023-05-24T02:22:39.217Z,18.09
2023-05-24T02:27:41.941Z,18.15
2023-05-24T02:32:43.599Z,17.83
2023-05-24T02:37:45.185Z,18.21
2023-05-24T02:42:46.800Z,18.09
2023-05-24T02:47:48.491Z,18.08
2023-05-24T02:52:50.580Z,18.17
2023-05-24T02:57:52.856Z,18.04
2023-05-24T03:02:55.633Z,18.26
2023-05-24T03:07:58.538Z,18.15
2023-05-24T03:13:00.134Z,18.07
2023-05-24T03:18:01.800Z,18.10
2023-05-24T03:23:03.512Z,18.01
2023-05-24T03:28:05.227Z,18.18
2023-05-24T03:33:06.928Z,18.11
2023-05-24T03:38:08.527Z,18.04
2023-05-24T03:43:10.208Z,18.00
2023-05-24T03:48:11.758Z,18.28
2023-05-24T03:53:13.392Z,17.95
2023-05-24T03:58:15.081Z,17.80
2023-05-24T04:03:16.750Z,17.88
2023-05-24T04:08:18.449Z,17.97
2023-05-24T04:13:20.104Z,17.92
2023-05-24T04:18:21.824Z,17.87
2023-05-24T04:23:23.511Z,17.83
2023-05-24T04:28:26.289Z,17.89
2023-05-24T04:33:28.115Z,17.84
2023-05-24T04:38:32.246Z,17.91
2023-05-24T04:43:36.935Z,17.85
2023-05-24T04:48:38.521Z,18.04
2023-05-24T04:53:40.174Z,18.00
2023-05-24T04:58:41.739Z,17.77
2023-05-24T05:03:46.028Z,17.71
2023-05-24T05:08:47.947Z,17.69
2023-05-24T05:13:49.808Z,17.77
2023-05-24T05:18:51.366Z,17.72
2023-05-24T05:23:52.967Z,17.72
2023-05-24T05:28:57.922Z,17.80
2023-05-24T05:33:59.594Z,17.82
2023-05-24T05:39:01.208Z,17.86
2023-05-24T05:44:02.821Z,17.78
2023-05-24T05:49:04.597Z,17.89
2023-05-24T05:54:06.494Z,17.91
2023-05-24T05:59:08.087Z,17.95
2023-05-24T06:04:10.721Z,17.85
2023-05-24T06:09:19.114Z,17.95
2023-05-24T06:14:22.528Z,17.91
2023-05-24T06:19:25.048Z,17.81
2023-05-24T06:24:28.551Z,17.61
2023-05-24T06:29:30.141Z,17.66
2023-05-24T06:34:31.811Z,17.68
2023-05-24T06:39:33.540Z,17.64
2023-05-24T06:44:35.234Z,17.64
2023-05-24T06:49:36.933Z,17.62
2023-05-24T06:54:38.538Z,17.61
2023-05-24T06:59:40.143Z,17.60
2023-05-24T07:04:42.467Z,17.43
2023-05-24T07:09:44.514Z,17.64
2023-05-24T07:14:46.126Z,17.44
2023-05-24T07:19:47.695Z,17.43
2023-05-24T07:24:49.274Z,17.30
2023-05-24T07:29:51.037Z,17.35
2023-05-24T07:34:52.654Z,17.18
2023-05-24T07:39:54.214Z,17.10
2023-05-24T07:44:56.486Z,18.53
2023-05-24T07:49:58.215Z,18.83
2023-05-24T07:54:59.811Z,18.89
2023-05-24T08:00:10.484Z,18.76
2023-05-24T08:05:13.561Z,19.11
2023-05-24T08:10:15.214Z,18.72
2023-05-24T08:15:17.128Z,18.99
2023-05-24T08:20:19.016Z,19.31
2023-05-24T08:25:21.170Z,19.55
2023-05-24T08:30:23.365Z,18.86
2023-05-24T08:35:24.995Z,19.34
2023-05-24T08:40:26.729Z,18.52
2023-05-24T08:45:36.926Z,19.26
2023-05-24T08:50:39.120Z,19.67
2023-05-24T08:55:43.378Z,19.56
2023-05-24T09:00:45.470Z,19.43
2023-05-24T09:05:47.343Z,19.47
2023-05-24T09:10:55.678Z,19.65
2023-05-24T09:16:00.025Z,19.34
2023-05-24T09:21:01.715Z,19.68
2023-05-24T09:26:11.449Z,18.40
2023-05-24T09:31:13.958Z,18.21
2023-05-24T09:36:17.295Z,18.15
2023-05-24T09:41:20.617Z,17.96
2023-05-24T09:46:22.290Z,17.85
2023-05-24T09:51:24.633Z,18.21
2023-05-24T09:56:27.120Z,18.46
2023-05-24T10:01:28.978Z,18.46
2023-05-24T10:06:35.253Z,18.62
2023-05-24T10:11:37.500Z,18.57
2023-05-24T10:16:39.276Z,18.32
2023-05-24T10:21:43.275Z,18.08
2023-05-24T10:26:48.794Z,19.26
2023-05-24T10:31:52.774Z,18.67
2023-05-24T10:36:54.668Z,19.19
2023-05-24T10:41:57.062Z,19.13
2023-05-24T10:47:20.130Z,18.96
2023-05-24T10:52:21.736Z,18.70
2023-05-24T10:57:24.738Z,18.99
2023-05-24T11:02:35.949Z,18.25
2023-05-24T11:07:43.092Z,18.28
2023-05-24T11:12:45.198Z,17.74
2023-05-24T11:18:09.344Z,18.06
2023-05-24T11:23:11.634Z,18.17
2023-05-24T11:28:13.373Z,18.20
2023-05-24T11:33:18.895Z,18.94
2023-05-24T11:38:24.210Z,18.87
2023-05-24T11:43:26.697Z,18.75
2023-05-24T11:48:29.858Z,18.37
2023-05-24T11:53:31.628Z,18.98
2023-05-24T11:58:50.898Z,19.29
2023-05-24T12:03:55.517Z,18.25
2023-05-24T12:08:57.315Z,18.43
2023-05-24T12:13:59.477Z,18.81
2023-05-24T12:19:05.742Z,17.88
2023-05-24T12:24:14.468Z,18.47
2023-05-24T12:29:17.876Z,18.45
2023-05-24T12:34:20.670Z,18.50
2023-05-24T12:39:24.292Z,19.01
2023-05-24T12:44:27.506Z,19.37
2023-05-24T12:49:29.864Z,18.24
2023-05-24T12:54:33.387Z,18.56
2023-05-24T12:59:35.174Z,18.41
2023-05-24T13:04:36.872Z,18.52
2023-05-24T13:09:38.649Z,18.34
2023-05-24T13:14:40.428Z,18.39
2023-05-24T13:19:42.092Z,18.40
2023-05-24T13:24:43.788Z,18.31
2023-05-24T13:29:59.238Z,18.16
2023-05-24T13:35:02.304Z,18.17
2023-05-24T13:40:04.769Z,18.15
2023-05-24T13:45:07.051Z,18.10
2023-05-24T13:50:09.432Z,18.17
2023-05-24T13:55:11.105Z,18.26
2023-05-24T14:00:13.478Z,18.17
2023-05-24T14:05:40.128Z,18.30
2023-05-24T14:10:37.425Z,18.34
2023-05-24T14:15:39.076Z,18.18
2023-05-24T14:20:40.992Z,18.37
2023-05-24T14:25:43.026Z,18.35
2023-05-24T14:30:44.920Z,18.13
2023-05-24T14:35:46.702Z,17.90
2023-05-24T14:40:48.859Z,17.88
2023-05-24T14:45:50.600Z,18.05
2023-05-24T14:50:52.462Z,17.73
2023-05-24T14:55:54.533Z,17.79
2023-05-24T15:00:56.269Z,17.87
2023-05-24T15:05:58.234Z,17.94
2023-05-24T15:11:00.217Z,19.03
2023-05-24T15:16:01.880Z,19.34
2023-05-24T15:21:03.771Z,19.35
2023-05-24T15:26:05.848Z,19.66
2023-05-24T15:31:07.518Z,19.41
2023-05-24T15:36:10.516Z,19.30
2023-05-24T15:41:12.371Z,19.58
2023-05-24T15:46:13.991Z,19.66
2023-05-24T15:56:21.646Z,19.24
2023-05-24T16:01:23.321Z,19.16
2023-05-24T16:06:25.038Z,19.19
2023-05-24T16:11:26.711Z,19.40
2023-05-24T16:16:29.640Z,19.33
2023-05-24T16:21:32.930Z,18.60
2023-05-24T16:26:35.040Z,17.90
2023-05-24T16:31:36.976Z,18.37
2023-05-24T16:36:39.255Z,19.22
2023-05-24T16:41:41.150Z,18.12
2023-05-24T16:46:43.844Z,17.86
2023-05-24T16:51:45.474Z,17.97
2023-05-24T16:56:48.300Z,17.53
2023-05-24T17:01:51.826Z,17.55
2023-05-24T17:06:53.598Z,17.74
2023-05-24T17:11:55.308Z,18.02
2023-05-24T17:16:57.013Z,18.59
2023-05-24T17:21:58.725Z,17.91
2023-05-24T17:27:02.393Z,17.94
2023-05-24T17:32:05.338Z,17.25
2023-05-24T17:37:07.716Z,18.25
2023-05-24T17:42:10.203Z,17.89
2023-05-24T17:47:12.661Z,17.34
2023-05-24T17:52:15.248Z,17.58
2023-05-24T17:57:17.534Z,17.42
2023-05-24T18:02:19.934Z,17.30
2023-05-24T18:07:22.563Z,17.22
2023-05-24T18:12:25.404Z,17.34
2023-05-24T18:17:28.223Z,17.26
2023-05-24T18:22:30.700Z,17.34
2023-05-24T18:27:33.162Z,16.81
2023-05-24T18:32:35.673Z,16.77
2023-05-24T18:37:41.009Z,16.70
2023-05-24T18:42:43.572Z,16.98
2023-05-24T18:47:46.136Z,16.62
2023-05-24T18:52:48.538Z,16.82
2023-05-24T18:57:51.159Z,17.06
2023-05-24T19:02:53.991Z,16.79
2023-05-24T19:07:56.451Z,16.80
2023-05-24T19:12:59.078Z,17.05
2023-05-24T19:18:01.529Z,16.90
2023-05-24T19:23:03.891Z,17.07
2023-05-24T19:28:06.669Z,16.96
2023-05-24T19:33:08.978Z,16.95
2023-05-24T19:38:10.966Z,17.04
2023-05-24T19:43:12.809Z,16.83
2023-05-24T19:48:14.777Z,16.90
2023-05-24T19:53:16.907Z,16.94
2023-05-24T19:58:18.645Z,16.95
2023-05-24T20:03:20.684Z,16.75
2023-05-24T20:08:22.549Z,16.72
2023-05-24T20:13:24.172Z,16.73
2023-05-24T20:18:25.964Z,16.90
2023-05-24T20:23:27.937Z,17.03
2023-05-24T20:28:31.817Z,16.82
2023-05-24T20:33:38.386Z,16.72
2023-05-24T20:38:40.099Z,16.67
2023-05-24T20:43:41.806Z,16.73
2023-05-24T20:48:43.693Z,16.55
2023-05-24T20:53:46.223Z,16.42
2023-05-24T20:58:49.469Z,16.44
2023-05-24T21:03:51.234Z,16.58
2023-05-24T21:08:52.841Z,16.48
2023-05-24T21:13:56.866Z,16.63
2023-05-24T21:19:00.850Z,16.52
2023-05-24T21:24:02.676Z,16.68
2023-05-24T21:29:04.500Z,16.76
2023-05-24T21:34:06.481Z,16.62
2023-05-24T21:39:08.491Z,16.83
2023-05-24T21:44:10.272Z,16.65
2023-05-24T21:49:12.067Z,16.73
2023-05-24T21:54:13.674Z,16.67
2023-05-24T21:59:16.285Z,16.57
2023-05-24T22:04:18.022Z,16.81
2023-05-24T22:09:19.729Z,16.45
2023-05-24T22:14:21.555Z,16.50
2023-05-24T22:19:38.942Z,16.44
2023-05-24T22:24:41.821Z,16.67
2023-05-24T22:29:44.042Z,16.68
2023-05-24T22:34:46.017Z,16.72
2023-05-24T22:39:47.666Z,16.57
2023-05-24T22:44:49.282Z,16.61
2023-05-24T22:49:54.210Z,16.64
2023-05-24T22:54:56.156Z,16.52
2023-05-24T22:59:57.760Z,16.56
2023-05-24T23:05:00.298Z,16.58
2023-05-24T23:10:03.170Z,16.39
2023-05-24T23:15:04.974Z,16.42
2023-05-24T23:20:10.300Z,16.19
2023-05-24T23:25:12.204Z,16.47
2023-05-24T23:30:14.024Z,16.36
2023-05-24T23:35:15.997Z,16.50
2023-05-24T23:40:17.900Z,16.46
2023-05-24T23:45:19.620Z,16.33
2023-05-24T23:50:22.486Z,16.40
2023-05-24T23:55:24.329Z,16.42
